SVA236 LSGG-OEJN
Flight info
| Callsign | SVA236 |
|---|---|
| Flight time | N/A |
| Altitude | 39000 |
| Route | MEDAM DCT NITAM DCT MOGBO DCT ROSKI DCT POLIT DCT BELIX DCT SALUN N705 BOPIX N710 TAKRI P751 LXR M999 MUVOL |
| Aircraft | A333/H-SDE3GHIJ2J3J5M1RVWXY/LB2D1 |
Departure
| Time | N/A |
|---|---|
| Airport | Geneva International Airport (LSGG) |
Arrival
| Time | 2026-05-06 11:37 |
|---|---|
| Airport | King Abdulaziz International Airport (OEJN) |
| Time | Latitude | Longitude | Altitude | Speed | Heading |
|---|---|---|---|---|---|
| 2026-05-06 10:32 | 25.71123 | 32.83212 | 38989 ft | 517 kts | 129° |
| 2026-05-06 10:32 | 25.67147 | 32.89868 | 38995 ft | 518 kts | 129° |
| 2026-05-06 10:33 | 25.63186 | 32.96539 | 38997 ft | 516 kts | 129° |
| 2026-05-06 10:33 | 25.59228 | 33.03178 | 38996 ft | 515 kts | 129° |
| 2026-05-06 10:34 | 25.55260 | 33.09805 | 38998 ft | 516 kts | 129° |
| 2026-05-06 10:34 | 25.51292 | 33.16417 | 38986 ft | 515 kts | 129° |
| 2026-05-06 10:35 | 25.47323 | 33.23023 | 38996 ft | 514 kts | 129° |
| 2026-05-06 10:35 | 25.43386 | 33.29567 | 38994 ft | 514 kts | 129° |
| 2026-05-06 10:36 | 25.39411 | 33.36164 | 38993 ft | 514 kts | 130° |
| 2026-05-06 10:36 | 25.35439 | 33.42748 | 38988 ft | 514 kts | 130° |
| 2026-05-06 10:37 | 25.31492 | 33.49281 | 38988 ft | 513 kts | 130° |
| 2026-05-06 10:37 | 25.27517 | 33.55854 | 38963 ft | 513 kts | 130° |
| 2026-05-06 10:38 | 25.23542 | 33.62419 | 38988 ft | 513 kts | 130° |
| 2026-05-06 10:38 | 25.19598 | 33.68925 | 38975 ft | 513 kts | 130° |
| 2026-05-06 10:39 | 25.15623 | 33.75470 | 38980 ft | 513 kts | 130° |
| 2026-05-06 10:39 | 25.11650 | 33.82005 | 38979 ft | 513 kts | 130° |
| 2026-05-06 10:40 | 25.07672 | 33.88541 | 38979 ft | 513 kts | 130° |
| 2026-05-06 10:40 | 25.03688 | 33.95074 | 38974 ft | 513 kts | 130° |
| 2026-05-06 10:41 | 24.99705 | 34.01598 | 38971 ft | 512 kts | 130° |
| 2026-05-06 10:41 | 24.95722 | 34.08117 | 38973 ft | 512 kts | 130° |
| 2026-05-06 10:42 | 24.91757 | 34.14594 | 38972 ft | 512 kts | 130° |
| 2026-05-06 10:42 | 24.87769 | 34.21097 | 38971 ft | 512 kts | 130° |
| 2026-05-06 10:43 | 24.83780 | 34.27596 | 38968 ft | 511 kts | 130° |
| 2026-05-06 10:44 | 24.77828 | 34.37276 | 38969 ft | 511 kts | 131° |
| 2026-05-06 10:44 | 24.73836 | 34.43757 | 38959 ft | 511 kts | 131° |
| 2026-05-06 10:45 | 24.69843 | 34.50234 | 38962 ft | 511 kts | 131° |
| 2026-05-06 10:45 | 24.65876 | 34.56658 | 38965 ft | 510 kts | 131° |
| 2026-05-06 10:46 | 24.61889 | 34.63105 | 38963 ft | 509 kts | 131° |
| 2026-05-06 10:46 | 24.57899 | 34.69548 | 38962 ft | 509 kts | 131° |
| 2026-05-06 10:47 | 24.53909 | 34.75983 | 38956 ft | 509 kts | 131° |
| 2026-05-06 10:47 | 24.49921 | 34.82408 | 38966 ft | 508 kts | 131° |
| 2026-05-06 10:48 | 24.45933 | 34.88824 | 38967 ft | 508 kts | 131° |
| 2026-05-06 10:48 | 24.41966 | 34.95198 | 38967 ft | 508 kts | 131° |
| 2026-05-06 10:49 | 24.37970 | 35.01610 | 38959 ft | 508 kts | 132° |
| 2026-05-06 10:49 | 24.33996 | 35.07976 | 38964 ft | 508 kts | 132° |
| 2026-05-06 10:50 | 24.30004 | 35.14364 | 38966 ft | 508 kts | 132° |
| 2026-05-06 10:50 | 24.26005 | 35.20756 | 38963 ft | 508 kts | 132° |
| 2026-05-06 10:51 | 24.22007 | 35.27137 | 38958 ft | 508 kts | 133° |
| 2026-05-06 10:51 | 24.18000 | 35.33524 | 38959 ft | 508 kts | 133° |
| 2026-05-06 10:52 | 24.13993 | 35.39904 | 38958 ft | 508 kts | 133° |
| 2026-05-06 10:52 | 24.10005 | 35.46244 | 38954 ft | 508 kts | 133° |
| 2026-05-06 10:53 | 24.05989 | 35.52623 | 38949 ft | 508 kts | 133° |
| 2026-05-06 10:53 | 24.01968 | 35.59000 | 38949 ft | 508 kts | 133° |
| 2026-05-06 10:54 | 23.97972 | 35.65329 | 38947 ft | 508 kts | 133° |
| 2026-05-06 10:54 | 23.93947 | 35.71692 | 38947 ft | 508 kts | 133° |
| 2026-05-06 10:55 | 23.89919 | 35.78049 | 38949 ft | 508 kts | 133° |
| 2026-05-06 10:55 | 23.85883 | 35.84408 | 38947 ft | 508 kts | 133° |
| 2026-05-06 10:56 | 23.81881 | 35.90708 | 38946 ft | 508 kts | 133° |
| 2026-05-06 10:56 | 23.77846 | 35.97053 | 38946 ft | 508 kts | 133° |
| 2026-05-06 10:57 | 23.73810 | 36.03390 | 38946 ft | 508 kts | 133° |
| 2026-05-06 10:57 | 23.69767 | 36.09730 | 38943 ft | 508 kts | 133° |
| 2026-05-06 10:58 | 23.65722 | 36.16066 | 38946 ft | 508 kts | 133° |
| 2026-05-06 10:58 | 23.61708 | 36.22345 | 38942 ft | 508 kts | 133° |
| 2026-05-06 10:59 | 23.57664 | 36.28664 | 38934 ft | 508 kts | 134° |
| 2026-05-06 10:59 | 23.53617 | 36.34980 | 38936 ft | 508 kts | 134° |
| 2026-05-06 11:00 | 23.49570 | 36.41286 | 38938 ft | 508 kts | 134° |
| 2026-05-06 11:00 | 23.45520 | 36.47591 | 38932 ft | 508 kts | 134° |
| 2026-05-06 11:01 | 23.41469 | 36.53888 | 38932 ft | 508 kts | 134° |
| 2026-05-06 11:01 | 23.37411 | 36.60187 | 38928 ft | 508 kts | 134° |
| 2026-05-06 11:02 | 23.34034 | 36.65426 | 38933 ft | 508 kts | 134° |
| 2026-05-06 11:02 | 23.29965 | 36.71729 | 38929 ft | 508 kts | 134° |
| 2026-05-06 11:03 | 23.25921 | 36.77988 | 38917 ft | 508 kts | 134° |
| 2026-05-06 11:03 | 23.21838 | 36.84297 | 38922 ft | 509 kts | 134° |
| 2026-05-06 11:04 | 23.17760 | 36.90592 | 38926 ft | 509 kts | 134° |
| 2026-05-06 11:04 | 23.13701 | 36.96850 | 38922 ft | 509 kts | 134° |
| 2026-05-06 11:05 | 23.09614 | 37.03143 | 38923 ft | 509 kts | 134° |
| 2026-05-06 11:05 | 23.05520 | 37.09438 | 38920 ft | 509 kts | 134° |
| 2026-05-06 11:06 | 23.01422 | 37.15730 | 38910 ft | 509 kts | 134° |
| 2026-05-06 11:06 | 22.97318 | 37.22003 | 38919 ft | 510 kts | 134° |
| 2026-05-06 11:07 | 22.93225 | 37.28242 | 38916 ft | 510 kts | 134° |
| 2026-05-06 11:07 | 22.89104 | 37.34519 | 38914 ft | 510 kts | 134° |
| 2026-05-06 11:08 | 22.84988 | 37.40783 | 38916 ft | 510 kts | 134° |
| 2026-05-06 11:08 | 22.80866 | 37.47050 | 38911 ft | 510 kts | 134° |
| 2026-05-06 11:09 | 22.76745 | 37.53306 | 38906 ft | 509 kts | 134° |
| 2026-05-06 11:09 | 22.72651 | 37.59516 | 38906 ft | 509 kts | 134° |
| 2026-05-06 11:10 | 22.68537 | 37.65773 | 38906 ft | 509 kts | 134° |
| 2026-05-06 11:10 | 22.64435 | 37.72034 | 38888 ft | 509 kts | 134° |
| 2026-05-06 11:11 | 22.60353 | 37.78256 | 38906 ft | 509 kts | 134° |
| 2026-05-06 11:11 | 22.56253 | 37.84499 | 38906 ft | 509 kts | 134° |
| 2026-05-06 11:12 | 22.52143 | 37.90749 | 38903 ft | 509 kts | 134° |
| 2026-05-06 11:12 | 22.48038 | 37.96985 | 38629 ft | 505 kts | 134° |
| 2026-05-06 11:12 | 22.46039 | 38.00024 | 37769 ft | 499 kts | 134° |
| 2026-05-06 11:13 | 22.44026 | 38.03079 | 36688 ft | 498 kts | 134° |
| 2026-05-06 11:13 | 22.42010 | 38.06132 | 35584 ft | 497 kts | 134° |
| 2026-05-06 11:13 | 22.40000 | 38.09173 | 34466 ft | 498 kts | 134° |
| 2026-05-06 11:13 | 22.37986 | 38.12221 | 33216 ft | 498 kts | 134° |
| 2026-05-06 11:14 | 22.35969 | 38.15269 | 31807 ft | 499 kts | 134° |
| 2026-05-06 11:14 | 22.33944 | 38.18329 | 30396 ft | 502 kts | 133° |
| 2026-05-06 11:14 | 22.31918 | 38.21390 | 29002 ft | 500 kts | 132° |
| 2026-05-06 11:14 | 22.29932 | 38.24397 | 28284 ft | 490 kts | 131° |
| 2026-05-06 11:15 | 22.27959 | 38.27380 | 27948 ft | 483 kts | 131° |
| 2026-05-06 11:15 | 22.26035 | 38.30292 | 27436 ft | 469 kts | 131° |
| 2026-05-06 11:15 | 22.24147 | 38.33140 | 26869 ft | 463 kts | 131° |
| 2026-05-06 11:15 | 22.22281 | 38.35950 | 26294 ft | 457 kts | 131° |
| 2026-05-06 11:16 | 22.20419 | 38.38708 | 25756 ft | 451 kts | 133° |
| 2026-05-06 11:16 | 22.18545 | 38.41345 | 25197 ft | 445 kts | 133° |
| 2026-05-06 11:16 | 22.16643 | 38.43985 | 24440 ft | 445 kts | 133° |
| 2026-05-06 11:16 | 22.14742 | 38.46620 | 23740 ft | 444 kts | 133° |
| 2026-05-06 11:17 | 22.12860 | 38.49231 | 23062 ft | 439 kts | 132° |
| 2026-05-06 11:17 | 22.10996 | 38.51821 | 22361 ft | 434 kts | 132° |
| 2026-05-06 11:17 | 22.09152 | 38.54384 | 21687 ft | 429 kts | 132° |
| 2026-05-06 11:17 | 22.07339 | 38.56910 | 21028 ft | 423 kts | 132° |
| 2026-05-06 11:18 | 22.05553 | 38.59409 | 20389 ft | 418 kts | 131° |
| 2026-05-06 11:18 | 22.03792 | 38.61873 | 19752 ft | 412 kts | 131° |
| 2026-05-06 11:18 | 22.02054 | 38.64305 | 19126 ft | 407 kts | 131° |
| 2026-05-06 11:18 | 22.00335 | 38.66705 | 18501 ft | 402 kts | 131° |
| 2026-05-06 11:19 | 21.98661 | 38.69044 | 17913 ft | 395 kts | 131° |
| 2026-05-06 11:19 | 21.96991 | 38.71376 | 17186 ft | 391 kts | 131° |
| 2026-05-06 11:19 | 21.95332 | 38.73690 | 16429 ft | 388 kts | 131° |
| 2026-05-06 11:19 | 21.93686 | 38.75984 | 15686 ft | 385 kts | 131° |
| 2026-05-06 11:20 | 21.92058 | 38.78254 | 14980 ft | 381 kts | 131° |
| 2026-05-06 11:20 | 21.90442 | 38.80505 | 14284 ft | 378 kts | 131° |
| 2026-05-06 11:20 | 21.88861 | 38.82708 | 13699 ft | 372 kts | 131° |
| 2026-05-06 11:20 | 21.87313 | 38.84866 | 13419 ft | 357 kts | 132° |
| 2026-05-06 11:21 | 21.85831 | 38.86936 | 13226 ft | 341 kts | 131° |
| 2026-05-06 11:21 | 21.84410 | 38.88917 | 13038 ft | 326 kts | 132° |
| 2026-05-06 11:21 | 21.83050 | 38.90809 | 12857 ft | 313 kts | 132° |
| 2026-05-06 11:21 | 21.81745 | 38.92624 | 12702 ft | 300 kts | 133° |
| 2026-05-06 11:22 | 21.80492 | 38.94366 | 12544 ft | 288 kts | 132° |
| 2026-05-06 11:22 | 21.79284 | 38.96042 | 12306 ft | 281 kts | 133° |
| 2026-05-06 11:22 | 21.78176 | 38.97759 | 11996 ft | 280 kts | 124° |
| 2026-05-06 11:22 | 21.77436 | 38.99716 | 11635 ft | 284 kts | 110° |
| 2026-05-06 11:23 | 21.76974 | 39.01787 | 11289 ft | 284 kts | 106° |
| 2026-05-06 11:23 | 21.76575 | 39.03864 | 10936 ft | 284 kts | 105° |
| 2026-05-06 11:23 | 21.76177 | 39.05964 | 10476 ft | 289 kts | 106° |
| 2026-05-06 11:23 | 21.75774 | 39.08096 | 10094 ft | 290 kts | 106° |
| 2026-05-06 11:24 | 21.75370 | 39.10216 | 9724 ft | 288 kts | 105° |
| 2026-05-06 11:24 | 21.74974 | 39.12293 | 9337 ft | 286 kts | 106° |
| 2026-05-06 11:24 | 21.74575 | 39.14375 | 8996 ft | 281 kts | 105° |
| 2026-05-06 11:24 | 21.74118 | 39.16397 | 8611 ft | 275 kts | 112° |
| 2026-05-06 11:25 | 21.73272 | 39.18212 | 8015 ft | 270 kts | 127° |
| 2026-05-06 11:25 | 21.72064 | 39.19750 | 7365 ft | 269 kts | 135° |
| 2026-05-06 11:25 | 21.70747 | 39.21172 | 6749 ft | 267 kts | 136° |
| 2026-05-06 11:25 | 21.69410 | 39.22564 | 6102 ft | 267 kts | 136° |
| 2026-05-06 11:26 | 21.68069 | 39.23948 | 5417 ft | 266 kts | 136° |
| 2026-05-06 11:26 | 21.66735 | 39.25322 | 4977 ft | 265 kts | 136° |
| 2026-05-06 11:26 | 21.65405 | 39.26694 | 4578 ft | 264 kts | 136° |
| 2026-05-06 11:26 | 21.64078 | 39.28059 | 4154 ft | 264 kts | 137° |
| 2026-05-06 11:27 | 21.62608 | 39.29239 | 3718 ft | 265 kts | 152° |
| 2026-05-06 11:27 | 21.60916 | 39.30029 | 3295 ft | 266 kts | 159° |
| 2026-05-06 11:27 | 21.59196 | 39.30704 | 3050 ft | 265 kts | 160° |
| 2026-05-06 11:27 | 21.57448 | 39.31372 | 2993 ft | 266 kts | 160° |
| 2026-05-06 11:28 | 21.55759 | 39.32024 | 3018 ft | 247 kts | 160° |
| 2026-05-06 11:28 | 21.54204 | 39.32628 | 3015 ft | 229 kts | 159° |
| 2026-05-06 11:28 | 21.52759 | 39.33191 | 3008 ft | 215 kts | 160° |
| 2026-05-06 11:28 | 21.51360 | 39.33739 | 3003 ft | 214 kts | 159° |
| 2026-05-06 11:29 | 21.49944 | 39.34281 | 2997 ft | 218 kts | 162° |
| 2026-05-06 11:29 | 21.48450 | 39.34298 | 2992 ft | 215 kts | 198° |
| 2026-05-06 11:29 | 21.47233 | 39.33430 | 2997 ft | 211 kts | 232° |
| 2026-05-06 11:29 | 21.46561 | 39.32067 | 2999 ft | 209 kts | 251° |
| 2026-05-06 11:30 | 21.46074 | 39.30598 | 2984 ft | 209 kts | 253° |
| 2026-05-06 11:30 | 21.45592 | 39.29127 | 2989 ft | 208 kts | 255° |
| 2026-05-06 11:30 | 21.45430 | 39.27616 | 2990 ft | 203 kts | 282° |
| 2026-05-06 11:30 | 21.46048 | 39.26317 | 2985 ft | 192 kts | 317° |
| 2026-05-06 11:31 | 21.47185 | 39.25665 | 2995 ft | 183 kts | 341° |
| 2026-05-06 11:31 | 21.48385 | 39.25236 | 2992 ft | 181 kts | 341° |
| 2026-05-06 11:31 | 21.49579 | 39.24780 | 2994 ft | 181 kts | 340° |
| 2026-05-06 11:31 | 21.50731 | 39.24335 | 2992 ft | 177 kts | 340° |
| 2026-05-06 11:32 | 21.51882 | 39.23887 | 2977 ft | 175 kts | 341° |
| 2026-05-06 11:32 | 21.53020 | 39.23439 | 2815 ft | 171 kts | 340° |
| 2026-05-06 11:32 | 21.54104 | 39.23007 | 2588 ft | 161 kts | 340° |
| 2026-05-06 11:32 | 21.55127 | 39.22603 | 2380 ft | 152 kts | 341° |
| 2026-05-06 11:33 | 21.56095 | 39.22221 | 2195 ft | 144 kts | 340° |
| 2026-05-06 11:33 | 21.57016 | 39.21859 | 1990 ft | 137 kts | 339° |
| 2026-05-06 11:33 | 21.57859 | 39.21526 | 1830 ft | 121 kts | 338° |
| 2026-05-06 11:33 | 21.58613 | 39.21228 | 1686 ft | 111 kts | 339° |
| 2026-05-06 11:34 | 21.59321 | 39.20948 | 1562 ft | 106 kts | 339° |
| 2026-05-06 11:34 | 21.60013 | 39.20675 | 1409 ft | 106 kts | 339° |
| 2026-05-06 11:34 | 21.60703 | 39.20403 | 1276 ft | 104 kts | 339° |
| 2026-05-06 11:34 | 21.61383 | 39.20135 | 1140 ft | 105 kts | 338° |
| 2026-05-06 11:35 | 21.62071 | 39.19863 | 1010 ft | 109 kts | 338° |
| 2026-05-06 11:35 | 21.62794 | 39.19578 | 885 ft | 111 kts | 337° |
| 2026-05-06 11:35 | 21.63519 | 39.19294 | 725 ft | 111 kts | 337° |
| 2026-05-06 11:35 | 21.64250 | 39.18995 | 568 ft | 113 kts | 335° |
| 2026-05-06 11:36 | 21.64986 | 39.18703 | 391 ft | 113 kts | 336° |
| 2026-05-06 11:36 | 21.65718 | 39.18419 | 255 ft | 110 kts | 334° |
| 2026-05-06 11:36 | 21.66431 | 39.18137 | 113 ft | 108 kts | 334° |
| 2026-05-06 11:36 | 21.67123 | 39.17863 | 42 ft | 101 kts | 334° |
| 2026-05-06 11:37 | 21.67659 | 39.17651 | 37 ft | 58 kts | 340° |
| 2026-05-06 11:37 | 21.67930 | 39.17546 | 36 ft | 38 kts | 338° |
| 2026-05-06 11:37 | 21.68199 | 39.17440 | 32 ft | 45 kts | 340° |
| 2026-05-06 11:37 | 21.68499 | 39.17321 | 30 ft | 44 kts | 341° |
| 2026-05-06 11:38 | 21.68769 | 39.17200 | 29 ft | 40 kts | 327° |
| 2026-05-06 11:38 | 21.68911 | 39.17044 | 30 ft | 21 kts | 307° |
| 2026-05-06 11:38 | 21.68936 | 39.16994 | 30 ft | 2 kts | 287° |
| 2026-05-06 11:38 | 21.68944 | 39.16972 | 30 ft | 3 kts | 300° |
| 2026-05-06 11:39 | 21.68979 | 39.16936 | 30 ft | 11 kts | 317° |
| 2026-05-06 11:39 | 21.69064 | 39.16870 | 29 ft | 18 kts | 332° |
| 2026-05-06 11:39 | 21.69185 | 39.16818 | 28 ft | 20 kts | 339° |
| 2026-05-06 11:39 | 21.69254 | 39.16745 | 28 ft | 8 kts | 268° |
| 2026-05-06 11:40 | 21.69210 | 39.16710 | 28 ft | 15 kts | 179° |
| 2026-05-06 11:40 | 21.69094 | 39.16751 | 29 ft | 19 kts | 160° |
| 2026-05-06 11:40 | 21.68956 | 39.16805 | 30 ft | 23 kts | 160° |
| 2026-05-06 11:40 | 21.68794 | 39.16867 | 30 ft | 26 kts | 160° |
| 2026-05-06 11:41 | 21.68616 | 39.16941 | 31 ft | 29 kts | 159° |
| 2026-05-06 11:41 | 21.68426 | 39.17017 | 32 ft | 29 kts | 159° |
| 2026-05-06 11:41 | 21.68254 | 39.17085 | 33 ft | 21 kts | 160° |
| 2026-05-06 11:41 | 21.68137 | 39.17131 | 33 ft | 13 kts | 160° |
| 2026-05-06 11:42 | 21.68099 | 39.17146 | 33 ft | 0 kts | 160° |
| 2026-05-06 11:43 | 21.68088 | 39.17150 | 33 ft | 7 kts | 160° |
| 2026-05-06 11:43 | 21.68018 | 39.17176 | 34 ft | 13 kts | 166° |
| 2026-05-06 11:44 | 21.67942 | 39.17105 | 34 ft | 10 kts | 245° |
| 2026-05-06 11:44 | 21.67916 | 39.17030 | 34 ft | 12 kts | 251° |
| 2026-05-06 11:44 | 21.67884 | 39.16928 | 34 ft | 16 kts | 250° |
| 2026-05-06 11:44 | 21.67833 | 39.16816 | 34 ft | 17 kts | 222° |
| 2026-05-06 11:45 | 21.67727 | 39.16820 | 34 ft | 16 kts | 157° |
| 2026-05-06 11:45 | 21.67612 | 39.16871 | 35 ft | 20 kts | 158° |
| 2026-05-06 11:45 | 21.67476 | 39.16932 | 36 ft | 23 kts | 156° |
| 2026-05-06 11:45 | 21.67336 | 39.17001 | 36 ft | 20 kts | 155° |
| 2026-05-06 11:46 | 21.67289 | 39.17003 | 36 ft | 4 kts | 213° |
| 2026-05-06 11:46 | 21.67248 | 39.16956 | 36 ft | 10 kts | 233° |
| 2026-05-06 11:46 | 21.67224 | 39.16902 | 36 ft | 7 kts | 250° |
| 2026-05-06 11:46 | 21.67208 | 39.16879 | 37 ft | 4 kts | 215° |
| 2026-05-06 11:47 | 21.67177 | 39.16877 | 35 ft | 5 kts | 174° |
| 2026-05-06 11:47 | 21.67145 | 39.16883 | 37 ft | 4 kts | 170° |
| 2026-05-06 11:47 | 21.67137 | 39.16884 | 37 ft | 0 kts | 170° |